sensor_id;sensor_type;location;lat;lon;timestamp;temperature;humidity
1301;DHT22;67431;48.806;9.160;2023-02-08T00:01:41;-2.90;99.90
1301;DHT22;67431;48.806;9.160;2023-02-08T00:04:08;-2.90;99.90
1301;DHT22;67431;48.806;9.160;2023-02-08T00:06:33;-2.90;99.90
1301;DHT22;67431;48.806;9.160;2023-02-08T00:09:00;-2.90;99.90
1301;DHT22;67431;48.806;9.160;2023-02-08T00:11:27;-2.90;99.90
1301;DHT22;67431;48.806;9.160;2023-02-08T00:13:53;-3.00;99.90
1301;DHT22;67431;48.806;9.160;2023-02-08T00:16:19;-3.00;99.90
1301;DHT22;67431;48.806;9.160;2023-02-08T00:18:45;-3.00;99.90
1301;DHT22;67431;48.806;9.160;2023-02-08T00:21:13;-3.10;99.90
1301;DHT22;67431;48.806;9.160;2023-02-08T00:23:40;-3.10;99.90
1301;DHT22;67431;48.806;9.160;2023-02-08T00:26:06;-3.00;99.90
1301;DHT22;67431;48.806;9.160;2023-02-08T00:28:31;-3.10;99.90
1301;DHT22;67431;48.806;9.160;2023-02-08T00:30:57;-3.10;99.90
1301;DHT22;67431;48.806;9.160;2023-02-08T00:33:24;-3.20;99.90
1301;DHT22;67431;48.806;9.160;2023-02-08T00:35:56;-3.30;99.90
1301;DHT22;67431;48.806;9.160;2023-02-08T00:38:22;-3.40;99.90
1301;DHT22;67431;48.806;9.160;2023-02-08T00:40:48;-3.40;99.90
1301;DHT22;67431;48.806;9.160;2023-02-08T00:43:18;-3.50;99.90
1301;DHT22;67431;48.806;9.160;2023-02-08T00:45:44;-3.60;99.90
1301;DHT22;67431;48.806;9.160;2023-02-08T00:48:10;-3.80;99.90
1301;DHT22;67431;48.806;9.160;2023-02-08T00:50:36;-3.80;99.90
1301;DHT22;67431;48.806;9.160;2023-02-08T00:53:02;-3.70;99.90
1301;DHT22;67431;48.806;9.160;2023-02-08T00:55:28;-3.80;99.90
1301;DHT22;67431;48.806;9.160;2023-02-08T00:57:54;-3.80;99.90
1301;DHT22;67431;48.806;9.160;2023-02-08T01:00:20;-3.80;99.90
1301;DHT22;67431;48.806;9.160;2023-02-08T01:02:47;-3.70;99.90
1301;DHT22;67431;48.806;9.160;2023-02-08T01:05:13;-3.70;99.90
1301;DHT22;67431;48.806;9.160;2023-02-08T01:07:39;-3.70;99.90
1301;DHT22;67431;48.806;9.160;2023-02-08T01:10:07;-3.70;99.90
1301;DHT22;67431;48.806;9.160;2023-02-08T01:12:37;-3.60;99.90
1301;DHT22;67431;48.806;9.160;2023-02-08T01:15:08;-3.70;99.90
1301;DHT22;67431;48.806;9.160;2023-02-08T01:17:37;-3.70;99.90
1301;DHT22;67431;48.806;9.160;2023-02-08T01:20:03;-3.80;99.90
1301;DHT22;67431;48.806;9.160;2023-02-08T01:22:29;-3.80;99.90
1301;DHT22;67431;48.806;9.160;2023-02-08T01:24:55;-3.80;99.90
1301;DHT22;67431;48.806;9.160;2023-02-08T01:27:21;-3.80;99.90
1301;DHT22;67431;48.806;9.160;2023-02-08T01:29:48;-3.90;99.90
1301;DHT22;67431;48.806;9.160;2023-02-08T01:32:13;-3.90;99.90
1301;DHT22;67431;48.806;9.160;2023-02-08T01:34:39;-4.00;99.90
1301;DHT22;67431;48.806;9.160;2023-02-08T01:37:05;-4.00;99.90
1301;DHT22;67431;48.806;9.160;2023-02-08T01:39:32;-3.90;99.90
1301;DHT22;67431;48.806;9.160;2023-02-08T01:41:58;-4.00;99.90
1301;DHT22;67431;48.806;9.160;2023-02-08T01:47:27;-4.10;99.90
1301;DHT22;67431;48.806;9.160;2023-02-08T01:49:54;-4.10;99.90
1301;DHT22;67431;48.806;9.160;2023-02-08T01:52:23;-4.10;99.90
1301;DHT22;67431;48.806;9.160;2023-02-08T01:54:57;-4.10;99.90
1301;DHT22;67431;48.806;9.160;2023-02-08T01:57:25;-4.10;99.90
1301;DHT22;67431;48.806;9.160;2023-02-08T01:59:57;-4.10;99.90
1301;DHT22;67431;48.806;9.160;2023-02-08T02:02:25;-4.20;99.90
1301;DHT22;67431;48.806;9.160;2023-02-08T02:04:52;-4.20;99.90
1301;DHT22;67431;48.806;9.160;2023-02-08T02:07:20;-4.30;99.90
1301;DHT22;67431;48.806;9.160;2023-02-08T02:12:30;-4.20;99.90
1301;DHT22;67431;48.806;9.160;2023-02-08T02:14:58;-4.20;99.90
1301;DHT22;67431;48.806;9.160;2023-02-08T02:17:25;-4.20;99.90
1301;DHT22;67431;48.806;9.160;2023-02-08T02:43:22;-4.50;99.90
1301;DHT22;67431;48.806;9.160;2023-02-08T02:49:01;-4.50;99.90
1301;DHT22;67431;48.806;9.160;2023-02-08T02:56:40;-4.40;99.90
1301;DHT22;67431;48.806;9.160;2023-02-08T02:59:10;-4.40;99.90
1301;DHT22;67431;48.806;9.160;2023-02-08T03:01:42;-4.40;99.90
1301;DHT22;67431;48.806;9.160;2023-02-08T03:09:57;-4.50;99.90
1301;DHT22;67431;48.806;9.160;2023-02-08T03:23:58;-4.50;99.90
1301;DHT22;67431;48.806;9.160;2023-02-08T03:26:36;-4.50;99.90
1301;DHT22;67431;48.806;9.160;2023-02-08T03:31:52;-4.60;99.90
1301;DHT22;67431;48.806;9.160;2023-02-08T03:37:32;-4.50;99.90
1301;DHT22;67431;48.806;9.160;2023-02-08T03:40:16;-4.60;99.90
1301;DHT22;67431;48.806;9.160;2023-02-08T03:42:46;-4.60;99.90
1301;DHT22;67431;48.806;9.160;2023-02-08T03:45:21;-4.50;99.90
1301;DHT22;67431;48.806;9.160;2023-02-08T03:47:52;-4.60;99.90
1301;DHT22;67431;48.806;9.160;2023-02-08T03:50:20;-4.70;99.90
1301;DHT22;67431;48.806;9.160;2023-02-08T03:52:48;-4.80;99.90
1301;DHT22;67431;48.806;9.160;2023-02-08T03:55:24;-4.80;99.90
1301;DHT22;67431;48.806;9.160;2023-02-08T03:58:39;-4.80;99.90
1301;DHT22;67431;48.806;9.160;2023-02-08T04:01:19;-4.90;99.90
1301;DHT22;67431;48.806;9.160;2023-02-08T04:03:48;-4.90;99.90
1301;DHT22;67431;48.806;9.160;2023-02-08T04:06:19;-4.90;99.90
1301;DHT22;67431;48.806;9.160;2023-02-08T04:08:45;-4.90;99.90
1301;DHT22;67431;48.806;9.160;2023-02-08T04:11:11;-4.90;99.90
1301;DHT22;67431;48.806;9.160;2023-02-08T04:13:37;-5.00;99.90
1301;DHT22;67431;48.806;9.160;2023-02-08T04:16:03;-4.90;99.90
1301;DHT22;67431;48.806;9.160;2023-02-08T04:18:29;-4.90;99.90
1301;DHT22;67431;48.806;9.160;2023-02-08T04:20:55;-5.00;99.90
1301;DHT22;67431;48.806;9.160;2023-02-08T04:23:21;-5.00;99.90
1301;DHT22;67431;48.806;9.160;2023-02-08T04:25:47;-5.00;99.90
1301;DHT22;67431;48.806;9.160;2023-02-08T04:28:13;-5.00;99.90
1301;DHT22;67431;48.806;9.160;2023-02-08T04:30:39;-5.00;99.90
1301;DHT22;67431;48.806;9.160;2023-02-08T04:33:05;-4.90;99.90
1301;DHT22;67431;48.806;9.160;2023-02-08T04:35:31;-4.90;99.90
1301;DHT22;67431;48.806;9.160;2023-02-08T04:37:57;-4.90;99.90
1301;DHT22;67431;48.806;9.160;2023-02-08T04:40:23;-4.90;99.90
1301;DHT22;67431;48.806;9.160;2023-02-08T04:42:49;-5.00;99.90
1301;DHT22;67431;48.806;9.160;2023-02-08T04:45:16;-5.10;99.90
1301;DHT22;67431;48.806;9.160;2023-02-08T04:47:42;-5.00;99.90
1301;DHT22;67431;48.806;9.160;2023-02-08T04:50:08;-5.00;99.90
1301;DHT22;67431;48.806;9.160;2023-02-08T04:52:34;-5.10;99.90
1301;DHT22;67431;48.806;9.160;2023-02-08T04:55:00;-5.10;99.90
1301;DHT22;67431;48.806;9.160;2023-02-08T04:57:26;-5.10;99.90
1301;DHT22;67431;48.806;9.160;2023-02-08T04:59:52;-5.20;99.90
1301;DHT22;67431;48.806;9.160;2023-02-08T05:02:18;-5.10;99.90
1301;DHT22;67431;48.806;9.160;2023-02-08T05:04:45;-5.20;99.90
1301;DHT22;67431;48.806;9.160;2023-02-08T05:09:53;-5.20;99.90
1301;DHT22;67431;48.806;9.160;2023-02-08T05:12:18;-5.20;99.90
1301;DHT22;67431;48.806;9.160;2023-02-08T05:14:44;-5.20;99.90
1301;DHT22;67431;48.806;9.160;2023-02-08T05:17:10;-5.20;99.90
1301;DHT22;67431;48.806;9.160;2023-02-08T05:19:37;-5.30;99.90
1301;DHT22;67431;48.806;9.160;2023-02-08T05:22:03;-5.20;99.90
1301;DHT22;67431;48.806;9.160;2023-02-08T05:24:29;-5.20;99.90
1301;DHT22;67431;48.806;9.160;2023-02-08T05:26:55;-5.20;99.90
1301;DHT22;67431;48.806;9.160;2023-02-08T05:29:21;-5.20;99.90
1301;DHT22;67431;48.806;9.160;2023-02-08T05:31:47;-5.20;99.90
1301;DHT22;67431;48.806;9.160;2023-02-08T05:34:12;-5.20;99.90
1301;DHT22;67431;48.806;9.160;2023-02-08T05:36:38;-5.10;99.90
1301;DHT22;67431;48.806;9.160;2023-02-08T05:39:04;-5.10;99.90
1301;DHT22;67431;48.806;9.160;2023-02-08T05:41:32;-5.20;99.90
1301;DHT22;67431;48.806;9.160;2023-02-08T05:43:59;-5.20;99.90
1301;DHT22;67431;48.806;9.160;2023-02-08T05:46:25;-5.20;99.90
1301;DHT22;67431;48.806;9.160;2023-02-08T05:48:51;-5.20;99.90
1301;DHT22;67431;48.806;9.160;2023-02-08T05:51:17;-5.30;99.90
1301;DHT22;67431;48.806;9.160;2023-02-08T05:53:42;-5.30;99.90
1301;DHT22;67431;48.806;9.160;2023-02-08T05:56:10;-5.30;99.90
1301;DHT22;67431;48.806;9.160;2023-02-08T05:58:36;-5.30;99.90
1301;DHT22;67431;48.806;9.160;2023-02-08T06:01:07;-5.40;99.90
1301;DHT22;67431;48.806;9.160;2023-02-08T06:03:33;-5.40;99.90
1301;DHT22;67431;48.806;9.160;2023-02-08T06:05:59;-5.40;99.90
1301;DHT22;67431;48.806;9.160;2023-02-08T06:08:26;-5.40;99.90
1301;DHT22;67431;48.806;9.160;2023-02-08T06:10:52;-5.50;99.90
1301;DHT22;67431;48.806;9.160;2023-02-08T06:13:18;-5.50;99.90
1301;DHT22;67431;48.806;9.160;2023-02-08T06:15:44;-5.50;99.90
1301;DHT22;67431;48.806;9.160;2023-02-08T06:18:10;-5.50;99.90
1301;DHT22;67431;48.806;9.160;2023-02-08T06:20:36;-5.50;99.90
1301;DHT22;67431;48.806;9.160;2023-02-08T06:23:03;-5.40;99.90
1301;DHT22;67431;48.806;9.160;2023-02-08T06:25:29;-5.40;99.90
1301;DHT22;67431;48.806;9.160;2023-02-08T06:27:55;-5.50;99.90
1301;DHT22;67431;48.806;9.160;2023-02-08T06:30:21;-5.40;99.90
1301;DHT22;67431;48.806;9.160;2023-02-08T06:32:47;-5.40;99.90
1301;DHT22;67431;48.806;9.160;2023-02-08T06:35:13;-5.40;99.90
1301;DHT22;67431;48.806;9.160;2023-02-08T06:37:39;-5.40;99.90
1301;DHT22;67431;48.806;9.160;2023-02-08T06:40:05;-5.40;99.90
1301;DHT22;67431;48.806;9.160;2023-02-08T06:42:32;-5.50;99.90
1301;DHT22;67431;48.806;9.160;2023-02-08T06:44:57;-5.50;99.90
1301;DHT22;67431;48.806;9.160;2023-02-08T06:47:25;-5.50;99.90
1301;DHT22;67431;48.806;9.160;2023-02-08T06:49:54;-5.40;99.90
1301;DHT22;67431;48.806;9.160;2023-02-08T06:52:21;-5.40;99.90
1301;DHT22;67431;48.806;9.160;2023-02-08T06:54:47;-5.50;99.90
1301;DHT22;67431;48.806;9.160;2023-02-08T06:57:13;-5.50;99.90
1301;DHT22;67431;48.806;9.160;2023-02-08T06:59:42;-5.50;99.90
1301;DHT22;67431;48.806;9.160;2023-02-08T07:02:18;-5.50;99.90
1301;DHT22;67431;48.806;9.160;2023-02-08T07:04:44;-5.60;99.90
1301;DHT22;67431;48.806;9.160;2023-02-08T07:07:14;-5.60;99.90
1301;DHT22;67431;48.806;9.160;2023-02-08T07:09:41;-5.60;99.90
1301;DHT22;67431;48.806;9.160;2023-02-08T07:12:07;-5.60;99.90
1301;DHT22;67431;48.806;9.160;2023-02-08T07:14:35;-5.60;99.90
1301;DHT22;67431;48.806;9.160;2023-02-08T07:17:02;-5.50;99.90
1301;DHT22;67431;48.806;9.160;2023-02-08T07:19:28;-5.50;99.90
1301;DHT22;67431;48.806;9.160;2023-02-08T07:21:55;-5.50;99.90
1301;DHT22;67431;48.806;9.160;2023-02-08T07:24:21;-5.50;99.90
1301;DHT22;67431;48.806;9.160;2023-02-08T07:26:47;-5.50;99.90
1301;DHT22;67431;48.806;9.160;2023-02-08T07:29:14;-5.50;99.90
1301;DHT22;67431;48.806;9.160;2023-02-08T07:31:40;-5.50;99.90
1301;DHT22;67431;48.806;9.160;2023-02-08T07:34:13;-5.40;99.90
1301;DHT22;67431;48.806;9.160;2023-02-08T07:37:21;-5.50;99.90
1301;DHT22;67431;48.806;9.160;2023-02-08T07:39:47;-5.50;99.90
1301;DHT22;67431;48.806;9.160;2023-02-08T07:42:13;-5.50;99.90
1301;DHT22;67431;48.806;9.160;2023-02-08T07:44:54;-5.50;99.90
1301;DHT22;67431;48.806;9.160;2023-02-08T07:47:26;-5.50;99.90
1301;DHT22;67431;48.806;9.160;2023-02-08T07:50:04;-5.40;99.90
1301;DHT22;67431;48.806;9.160;2023-02-08T07:52:30;-5.40;99.90
1301;DHT22;67431;48.806;9.160;2023-02-08T07:54:56;-5.40;99.90
1301;DHT22;67431;48.806;9.160;2023-02-08T07:57:22;-5.30;99.90
1301;DHT22;67431;48.806;9.160;2023-02-08T07:59:48;-5.30;99.90
1301;DHT22;67431;48.806;9.160;2023-02-08T08:02:14;-5.20;99.90
1301;DHT22;67431;48.806;9.160;2023-02-08T08:04:41;-5.10;99.90
1301;DHT22;67431;48.806;9.160;2023-02-08T08:07:06;-5.10;99.90
1301;DHT22;67431;48.806;9.160;2023-02-08T08:09:32;-4.90;99.90
1301;DHT22;67431;48.806;9.160;2023-02-08T08:11:59;-4.90;99.90
1301;DHT22;67431;48.806;9.160;2023-02-08T08:14:26;-4.80;99.90
1301;DHT22;67431;48.806;9.160;2023-02-08T08:16:52;-4.70;99.90
1301;DHT22;67431;48.806;9.160;2023-02-08T08:19:18;-4.70;99.90
1301;DHT22;67431;48.806;9.160;2023-02-08T08:21:44;-4.60;99.90
1301;DHT22;67431;48.806;9.160;2023-02-08T08:24:20;-4.50;99.90
1301;DHT22;67431;48.806;9.160;2023-02-08T08:26:45;-4.40;99.90
1301;DHT22;67431;48.806;9.160;2023-02-08T08:29:12;-4.30;99.90
1301;DHT22;67431;48.806;9.160;2023-02-08T08:31:42;-4.20;99.90
1301;DHT22;67431;48.806;9.160;2023-02-08T08:34:11;-4.20;99.90
1301;DHT22;67431;48.806;9.160;2023-02-08T08:36:46;-4.10;99.90
1301;DHT22;67431;48.806;9.160;2023-02-08T08:39:12;-4.00;99.90
1301;DHT22;67431;48.806;9.160;2023-02-08T08:41:38;-3.90;99.90
1301;DHT22;67431;48.806;9.160;2023-02-08T08:44:04;-3.80;99.90
1301;DHT22;67431;48.806;9.160;2023-02-08T08:46:30;-3.70;99.90
1301;DHT22;67431;48.806;9.160;2023-02-08T08:48:55;-3.60;99.90
1301;DHT22;67431;48.806;9.160;2023-02-08T08:51:22;-3.60;99.90
1301;DHT22;67431;48.806;9.160;2023-02-08T08:53:48;-3.50;99.90
1301;DHT22;67431;48.806;9.160;2023-02-08T08:56:14;-3.30;99.90
1301;DHT22;67431;48.806;9.160;2023-02-08T08:58:41;-3.20;99.90
1301;DHT22;67431;48.806;9.160;2023-02-08T09:01:16;-3.00;99.90
1301;DHT22;67431;48.806;9.160;2023-02-08T09:03:44;-2.90;99.90
1301;DHT22;67431;48.806;9.160;2023-02-08T09:06:10;-2.80;99.90
1301;DHT22;67431;48.806;9.160;2023-02-08T09:08:36;-2.60;99.90
1301;DHT22;67431;48.806;9.160;2023-02-08T09:11:07;-2.50;99.90
1301;DHT22;67431;48.806;9.160;2023-02-08T09:13:34;-2.40;99.90
1301;DHT22;67431;48.806;9.160;2023-02-08T09:16:16;-2.40;99.90
1301;DHT22;67431;48.806;9.160;2023-02-08T09:18:43;-2.20;99.90
1301;DHT22;67431;48.806;9.160;2023-02-08T09:21:15;-2.10;99.90
1301;DHT22;67431;48.806;9.160;2023-02-08T09:23:42;-2.00;99.90
1301;DHT22;67431;48.806;9.160;2023-02-08T09:26:15;-2.00;99.90
1301;DHT22;67431;48.806;9.160;2023-02-08T09:28:42;-1.90;99.90
1301;DHT22;67431;48.806;9.160;2023-02-08T09:33:40;-1.60;99.90
1301;DHT22;67431;48.806;9.160;2023-02-08T09:36:06;-1.40;99.90
1301;DHT22;67431;48.806;9.160;2023-02-08T09:38:33;-1.30;99.90
1301;DHT22;67431;48.806;9.160;2023-02-08T09:46:45;-0.50;99.90
1301;DHT22;67431;48.806;9.160;2023-02-08T09:49:17;1.40;99.90
1301;DHT22;67431;48.806;9.160;2023-02-08T09:51:57;3.90;99.90
1301;DHT22;67431;48.806;9.160;2023-02-08T09:54:42;5.10;99.90
1301;DHT22;67431;48.806;9.160;2023-02-08T09:57:16;7.00;91.30
1301;DHT22;67431;48.806;9.160;2023-02-08T09:59:52;8.30;83.70
1301;DHT22;67431;48.806;9.160;2023-02-08T10:02:26;9.70;73.20
1301;DHT22;67431;48.806;9.160;2023-02-08T10:05:11;11.00;63.80
1301;DHT22;67431;48.806;9.160;2023-02-08T10:07:39;11.50;60.20
1301;DHT22;67431;48.806;9.160;2023-02-08T10:10:11;12.40;57.20
1301;DHT22;67431;48.806;9.160;2023-02-08T10:20:55;14.10;52.40
1301;DHT22;67431;48.806;9.160;2023-02-08T10:23:35;14.40;52.10
1301;DHT22;67431;48.806;9.160;2023-02-08T10:36:42;16.20;50.70
1301;DHT22;67431;48.806;9.160;2023-02-08T10:39:26;17.00;46.10
1301;DHT22;67431;48.806;9.160;2023-02-08T10:41:52;17.00;46.10
1301;DHT22;67431;48.806;9.160;2023-02-08T10:50:31;17.80;65.00
1301;DHT22;67431;48.806;9.160;2023-02-08T10:52:58;17.90;56.90
1301;DHT22;67431;48.806;9.160;2023-02-08T10:55:24;17.70;56.30
1301;DHT22;67431;48.806;9.160;2023-02-08T10:57:57;17.50;56.10
1301;DHT22;67431;48.806;9.160;2023-02-08T11:00:28;17.50;55.50
1301;DHT22;67431;48.806;9.160;2023-02-08T11:02:58;17.30;55.00
1301;DHT22;67431;48.806;9.160;2023-02-08T11:05:33;16.90;55.60
1301;DHT22;67431;48.806;9.160;2023-02-08T11:10:39;18.00;57.10
1301;DHT22;67431;48.806;9.160;2023-02-08T11:13:19;18.30;67.90
1301;DHT22;67431;48.806;9.160;2023-02-08T11:15:52;18.20;54.00
1301;DHT22;67431;48.806;9.160;2023-02-08T11:18:48;17.30;45.50
1301;DHT22;67431;48.806;9.160;2023-02-08T11:21:31;18.70;49.80
1301;DHT22;67431;48.806;9.160;2023-02-08T11:26:41;19.10;47.60
1301;DHT22;67431;48.806;9.160;2023-02-08T11:29:26;19.80;57.60
1301;DHT22;67431;48.806;9.160;2023-02-08T11:32:02;19.80;48.50
1301;DHT22;67431;48.806;9.160;2023-02-08T11:34:31;19.70;46.70
1301;DHT22;67431;48.806;9.160;2023-02-08T11:37:02;19.60;45.30
1301;DHT22;67431;48.806;9.160;2023-02-08T11:42:02;18.90;47.30
1301;DHT22;67431;48.806;9.160;2023-02-08T11:44:36;19.30;44.50
1301;DHT22;67431;48.806;9.160;2023-02-08T11:47:09;18.60;45.20
1301;DHT22;67431;48.806;9.160;2023-02-08T11:49:41;19.50;51.10
1301;DHT22;67431;48.806;9.160;2023-02-08T11:52:24;20.10;53.80
1301;DHT22;67431;48.806;9.160;2023-02-08T11:54:52;20.60;50.30
1301;DHT22;67431;48.806;9.160;2023-02-08T11:57:20;20.10;49.10
1301;DHT22;67431;48.806;9.160;2023-02-08T11:59:48;20.60;58.50
1301;DHT22;67431;48.806;9.160;2023-02-08T12:02:38;21.30;50.70
1301;DHT22;67431;48.806;9.160;2023-02-08T12:05:17;21.30;50.90
1301;DHT22;67431;48.806;9.160;2023-02-08T12:11:22;19.80;54.60
1301;DHT22;67431;48.806;9.160;2023-02-08T12:14:19;20.70;50.80
1301;DHT22;67431;48.806;9.160;2023-02-08T12:17:15;21.10;52.70
1301;DHT22;67431;48.806;9.160;2023-02-08T12:22:30;21.80;48.60
1301;DHT22;67431;48.806;9.160;2023-02-08T12:30:49;22.40;42.00
1301;DHT22;67431;48.806;9.160;2023-02-08T12:38:51;22.40;37.90
1301;DHT22;67431;48.806;9.160;2023-02-08T12:56:56;21.30;45.00
1301;DHT22;67431;48.806;9.160;2023-02-08T13:02:01;21.40;38.40
1301;DHT22;67431;48.806;9.160;2023-02-08T13:04:41;21.80;44.30
1301;DHT22;67431;48.806;9.160;2023-02-08T13:09:55;21.60;39.50
1301;DHT22;67431;48.806;9.160;2023-02-08T13:12:31;21.40;41.50
1301;DHT22;67431;48.806;9.160;2023-02-08T13:15:07;21.50;43.70
1301;DHT22;67431;48.806;9.160;2023-02-08T13:20:55;21.40;38.80
1301;DHT22;67431;48.806;9.160;2023-02-08T13:23:46;21.50;39.40
1301;DHT22;67431;48.806;9.160;2023-02-08T13:26:29;21.40;43.80
1301;DHT22;67431;48.806;9.160;2023-02-08T13:28:58;21.20;46.40
1301;DHT22;67431;48.806;9.160;2023-02-08T13:31:36;21.30;44.50
1301;DHT22;67431;48.806;9.160;2023-02-08T13:34:11;21.00;38.10
1301;DHT22;67431;48.806;9.160;2023-02-08T13:37:21;19.60;36.10
1301;DHT22;67431;48.806;9.160;2023-02-08T13:39:48;19.90;40.80
1301;DHT22;67431;48.806;9.160;2023-02-08T13:44:56;19.90;37.70
1301;DHT22;67431;48.806;9.160;2023-02-08T13:47:31;19.80;44.40
1301;DHT22;67431;48.806;9.160;2023-02-08T13:50:05;19.80;40.70
1301;DHT22;67431;48.806;9.160;2023-02-08T14:00:28;19.10;39.80
1301;DHT22;67431;48.806;9.160;2023-02-08T14:14:05;18.90;42.30
1301;DHT22;67431;48.806;9.160;2023-02-08T14:16:40;18.70;40.90
1301;DHT22;67431;48.806;9.160;2023-02-08T14:27:10;17.90;49.60
1301;DHT22;67431;48.806;9.160;2023-02-08T14:29:41;18.20;48.60
1301;DHT22;67431;48.806;9.160;2023-02-08T14:32:08;18.20;44.60
1301;DHT22;67431;48.806;9.160;2023-02-08T14:34:37;18.00;40.20
1301;DHT22;67431;48.806;9.160;2023-02-08T14:37:26;18.10;39.90
1301;DHT22;67431;48.806;9.160;2023-02-08T14:40:32;18.40;47.80
1301;DHT22;67431;48.806;9.160;2023-02-08T14:43:03;18.30;45.70
1301;DHT22;67431;48.806;9.160;2023-02-08T14:45:32;18.10;45.00
1301;DHT22;67431;48.806;9.160;2023-02-08T14:48:22;17.60;40.80
1301;DHT22;67431;48.806;9.160;2023-02-08T14:53:49;17.00;42.60
1301;DHT22;67431;48.806;9.160;2023-02-08T14:56:32;16.90;41.50
1301;DHT22;67431;48.806;9.160;2023-02-08T15:01:37;16.50;44.70
1301;DHT22;67431;48.806;9.160;2023-02-08T15:04:05;16.70;47.80
1301;DHT22;67431;48.806;9.160;2023-02-08T15:09:05;16.70;44.60
1301;DHT22;67431;48.806;9.160;2023-02-08T15:11:38;16.50;47.20
1301;DHT22;67431;48.806;9.160;2023-02-08T15:14:05;16.30;42.30
1301;DHT22;67431;48.806;9.160;2023-02-08T15:16:35;15.90;42.10
1301;DHT22;67431;48.806;9.160;2023-02-08T15:19:06;15.50;43.30
1301;DHT22;67431;48.806;9.160;2023-02-08T15:21:35;15.40;45.70
1301;DHT22;67431;48.806;9.160;2023-02-08T15:24:17;15.20;48.70
1301;DHT22;67431;48.806;9.160;2023-02-08T15:26:45;14.80;43.10
1301;DHT22;67431;48.806;9.160;2023-02-08T15:29:29;14.40;44.50
1301;DHT22;67431;48.806;9.160;2023-02-08T15:31:55;14.50;47.20
1301;DHT22;67431;48.806;9.160;2023-02-08T15:34:25;14.00;45.00
1301;DHT22;67431;48.806;9.160;2023-02-08T15:36:55;14.00;47.50
1301;DHT22;67431;48.806;9.160;2023-02-08T15:39:35;13.80;47.30
1301;DHT22;67431;48.806;9.160;2023-02-08T15:42:04;13.50;45.30
1301;DHT22;67431;48.806;9.160;2023-02-08T15:44:33;13.10;48.00
1301;DHT22;67431;48.806;9.160;2023-02-08T15:47:04;12.60;45.70
1301;DHT22;67431;48.806;9.160;2023-02-08T15:49:35;12.30;45.80
1301;DHT22;67431;48.806;9.160;2023-02-08T15:52:02;12.20;45.90
1301;DHT22;67431;48.806;9.160;2023-02-08T15:54:29;12.00;46.20
1301;DHT22;67431;48.806;9.160;2023-02-08T15:57:15;11.70;46.50
1301;DHT22;67431;48.806;9.160;2023-02-08T15:59:44;11.30;48.00
1301;DHT22;67431;48.806;9.160;2023-02-08T16:04:44;10.20;47.30
1301;DHT22;67431;48.806;9.160;2023-02-08T16:07:29;9.60;48.70
1301;DHT22;67431;48.806;9.160;2023-02-08T16:09:56;8.90;49.30
1301;DHT22;67431;48.806;9.160;2023-02-08T16:12:26;8.30;50.80
1301;DHT22;67431;48.806;9.160;2023-02-08T16:14:53;7.80;51.40
1301;DHT22;67431;48.806;9.160;2023-02-08T16:17:42;7.40;52.30
1301;DHT22;67431;48.806;9.160;2023-02-08T16:22:59;6.70;53.80
1301;DHT22;67431;48.806;9.160;2023-02-08T16:25:36;6.40;54.40
1301;DHT22;67431;48.806;9.160;2023-02-08T16:28:03;6.10;54.90
1301;DHT22;67431;48.806;9.160;2023-02-08T16:30:30;5.90;55.50
1301;DHT22;67431;48.806;9.160;2023-02-08T16:32:56;5.80;55.80
1301;DHT22;67431;48.806;9.160;2023-02-08T16:35:27;5.60;54.90
1301;DHT22;67431;48.806;9.160;2023-02-08T16:38:00;5.30;54.30
1301;DHT22;67431;48.806;9.160;2023-02-08T16:40:49;5.20;56.10
1301;DHT22;67431;48.806;9.160;2023-02-08T16:45:42;4.90;55.70
1301;DHT22;67431;48.806;9.160;2023-02-08T16:48:28;4.80;57.30
1301;DHT22;67431;48.806;9.160;2023-02-08T16:51:00;4.70;57.90
1301;DHT22;67431;48.806;9.160;2023-02-08T16:53:31;4.60;57.90
1301;DHT22;67431;48.806;9.160;2023-02-08T16:55:59;4.60;58.50
1301;DHT22;67431;48.806;9.160;2023-02-08T16:58:25;4.40;59.70
1301;DHT22;67431;48.806;9.160;2023-02-08T17:00:51;4.20;60.10
1301;DHT22;67431;48.806;9.160;2023-02-08T17:03:17;4.10;60.60
1301;DHT22;67431;48.806;9.160;2023-02-08T17:05:45;3.90;58.90
1301;DHT22;67431;48.806;9.160;2023-02-08T17:08:16;3.80;60.70
1301;DHT22;67431;48.806;9.160;2023-02-08T17:10:43;3.70;60.80
1301;DHT22;67431;48.806;9.160;2023-02-08T17:13:10;3.70;61.10
1301;DHT22;67431;48.806;9.160;2023-02-08T17:15:37;3.60;62.40
1301;DHT22;67431;48.806;9.160;2023-02-08T17:18:03;3.50;63.30
1301;DHT22;67431;48.806;9.160;2023-02-08T17:20:33;3.30;63.50
1301;DHT22;67431;48.806;9.160;2023-02-08T17:23:01;3.30;64.80
1301;DHT22;67431;48.806;9.160;2023-02-08T17:25:29;3.20;63.30
1301;DHT22;67431;48.806;9.160;2023-02-08T17:27:58;3.10;64.00
1301;DHT22;67431;48.806;9.160;2023-02-08T17:30:27;3.00;65.00
1301;DHT22;67431;48.806;9.160;2023-02-08T17:32:53;3.00;65.80
1301;DHT22;67431;48.806;9.160;2023-02-08T17:35:22;2.90;66.00
1301;DHT22;67431;48.806;9.160;2023-02-08T17:37:49;2.70;66.40
1301;DHT22;67431;48.806;9.160;2023-02-08T17:40:19;2.60;76.50
1301;DHT22;67431;48.806;9.160;2023-02-08T17:42:45;2.50;77.80
1301;DHT22;67431;48.806;9.160;2023-02-08T17:45:11;2.30;77.50
1301;DHT22;67431;48.806;9.160;2023-02-08T17:47:37;2.20;70.30
1301;DHT22;67431;48.806;9.160;2023-02-08T17:50:11;2.00;73.20
1301;DHT22;67431;48.806;9.160;2023-02-08T17:52:38;1.90;74.50
1301;DHT22;67431;48.806;9.160;2023-02-08T17:55:05;1.80;73.70
1301;DHT22;67431;48.806;9.160;2023-02-08T17:57:33;1.80;74.70
1301;DHT22;67431;48.806;9.160;2023-02-08T18:00:00;1.70;76.00
1301;DHT22;67431;48.806;9.160;2023-02-08T18:02:29;1.70;76.80
1301;DHT22;67431;48.806;9.160;2023-02-08T18:04:58;1.60;78.20
1301;DHT22;67431;48.806;9.160;2023-02-08T18:07:24;1.50;78.90
1301;DHT22;67431;48.806;9.160;2023-02-08T18:09:50;1.50;79.40
1301;DHT22;67431;48.806;9.160;2023-02-08T18:12:16;1.40;80.80
1301;DHT22;67431;48.806;9.160;2023-02-08T18:14:42;1.40;79.00
1301;DHT22;67431;48.806;9.160;2023-02-08T18:17:07;1.40;80.20
1301;DHT22;67431;48.806;9.160;2023-02-08T18:19:33;1.40;80.20
1301;DHT22;67431;48.806;9.160;2023-02-08T18:22:00;1.40;80.90
1301;DHT22;67431;48.806;9.160;2023-02-08T18:24:29;1.30;81.40
1301;DHT22;67431;48.806;9.160;2023-02-08T18:26:56;1.30;82.30
1301;DHT22;67431;48.806;9.160;2023-02-08T18:29:22;1.30;83.80
1301;DHT22;67431;48.806;9.160;2023-02-08T18:31:49;1.30;84.60
1301;DHT22;67431;48.806;9.160;2023-02-08T18:34:16;1.30;87.50
1301;DHT22;67431;48.806;9.160;2023-02-08T18:36:44;1.30;83.40
1301;DHT22;67431;48.806;9.160;2023-02-08T18:39:13;1.30;85.50
1301;DHT22;67431;48.806;9.160;2023-02-08T18:41:40;1.30;85.10
1301;DHT22;67431;48.806;9.160;2023-02-08T18:44:09;1.20;86.40
1301;DHT22;67431;48.806;9.160;2023-02-08T18:46:35;1.20;87.80
1301;DHT22;67431;48.806;9.160;2023-02-08T18:49:02;1.30;89.10
1301;DHT22;67431;48.806;9.160;2023-02-08T18:51:28;1.20;88.90
1301;DHT22;67431;48.806;9.160;2023-02-08T18:53:55;1.10;88.90
1301;DHT22;67431;48.806;9.160;2023-02-08T18:56:22;1.10;89.60
1301;DHT22;67431;48.806;9.160;2023-02-08T18:58:50;1.10;90.30
1301;DHT22;67431;48.806;9.160;2023-02-08T19:01:19;1.10;90.10
1301;DHT22;67431;48.806;9.160;2023-02-08T19:03:46;1.10;90.90
1301;DHT22;67431;48.806;9.160;2023-02-08T19:06:14;1.10;91.30
1301;DHT22;67431;48.806;9.160;2023-02-08T19:08:41;1.10;89.50
1301;DHT22;67431;48.806;9.160;2023-02-08T19:11:26;1.00;90.40
1301;DHT22;67431;48.806;9.160;2023-02-08T19:13:54;0.90;90.50
1301;DHT22;67431;48.806;9.160;2023-02-08T19:16:21;0.80;92.20
1301;DHT22;67431;48.806;9.160;2023-02-08T19:18:50;0.70;93.30